Time;durP1;ratioP1;P1;durP2;ratioP2;P2;SDS_P1;SDS_P2;PMS_P1;PMS_P2;Temp;Humidity;BMP_temperature;BMP_pressure;BME280_temperature;BME280_humidity;BME280_pressure;Samples;Min_cycle;Max_cycle;Signal;HPM_P1;HPM_P2
2022/10/31 00:00:22;;;;;;;4.90;3.15;;;23.60;63.50;;;;;;5042040;28;20033;-68
2022/10/31 00:02:48;;;;;;;4.78;3.20;;;23.70;63.70;;;;;;5048587;28;20589;-69
2022/10/31 00:05:14;;;;;;;5.70;2.95;;;23.70;63.80;;;;;;5040512;28;20057;-68
2022/10/31 00:07:39;;;;;;;6.88;2.65;;;23.70;63.70;;;;;;5030261;28;20032;-68
2022/10/31 00:10:06;;;;;;;3.72;2.70;;;23.60;63.80;;;;;;5050622;28;20112;-69
2022/10/31 00:12:32;;;;;;;2.97;2.53;;;23.70;64.00;;;;;;5029097;28;20029;-69
2022/10/31 00:14:58;;;;;;;5.47;3.00;;;23.70;64.00;;;;;;5035548;28;20045;-68
2022/10/31 00:17:24;;;;;;;6.35;2.88;;;23.70;64.10;;;;;;5033426;28;20079;-69
2022/10/31 00:19:50;;;;;;;7.03;2.95;;;23.70;64.20;;;;;;5029986;28;20040;-68
2022/10/31 00:22:16;;;;;;;4.97;2.90;;;23.70;64.10;;;;;;5030389;28;20045;-69
2022/10/31 00:24:42;;;;;;;5.57;2.60;;;23.70;64.00;;;;;;5040354;28;20038;-69
2022/10/31 00:27:08;;;;;;;3.33;2.58;;;23.80;64.10;;;;;;5034322;28;20035;-68
2022/10/31 00:29:34;;;;;;;4.43;2.45;;;23.70;64.20;;;;;;5048469;28;20171;-68
2022/10/31 00:32:00;;;;;;;4.25;2.50;;;23.70;64.10;;;;;;5045885;28;20067;-68
2022/10/31 00:34:26;;;;;;;2.65;2.20;;;23.70;64.10;;;;;;5047759;28;20041;-68
2022/10/31 00:36:52;;;;;;;3.92;2.63;;;23.70;64.10;;;;;;5030802;28;20030;-69
2022/10/31 00:39:18;;;;;;;3.92;3.22;;;23.70;64.20;;;;;;5041242;28;20040;-69
2022/10/31 00:41:44;;;;;;;2.92;2.47;;;23.70;64.20;;;;;;5046287;28;22003;-69
2022/10/31 00:44:11;;;;;;;4.32;2.85;;;23.80;64.30;;;;;;5047205;28;20151;-69
2022/10/31 00:46:37;;;;;;;5.50;3.22;;;23.70;64.30;;;;;;5038396;28;20052;-69
2022/10/31 00:49:03;;;;;;;2.90;2.47;;;23.70;64.30;;;;;;5035551;28;20486;-69
2022/10/31 00:51:29;;;;;;;4.45;3.00;;;23.80;64.30;;;;;;5037126;28;20524;-69
2022/10/31 00:53:56;;;;;;;4.00;3.20;;;23.70;64.30;;;;;;5042259;28;20044;-68
2022/10/31 00:56:23;;;;;;;7.00;3.38;;;23.80;64.30;;;;;;5030587;28;20037;-69
2022/10/31 00:58:49;;;;;;;3.85;2.72;;;23.80;64.30;;;;;;5045556;28;20102;-69
2022/10/31 01:01:15;;;;;;;3.67;3.05;;;23.70;64.40;;;;;;5044486;28;20517;-69
2022/10/31 01:03:41;;;;;;;5.28;3.00;;;23.80;64.30;;;;;;5048550;28;20025;-69
2022/10/31 01:06:12;;;;;;;5.05;2.95;;;23.70;64.40;;;;;;5031404;28;20049;-69
2022/10/31 01:08:39;;;;;;;4.38;3.35;;;23.70;64.40;;;;;;5032587;28;20508;-69
2022/10/31 01:11:15;;;;;;;5.70;3.33;;;23.70;64.30;;;;;;5030388;28;20111;-69
2022/10/31 01:13:41;;;;;;;4.85;2.95;;;23.80;64.40;;;;;;5037693;28;20033;-68
2022/10/31 01:16:10;;;;;;;4.18;2.97;;;23.70;64.40;;;;;;5036888;28;20052;-69
2022/10/31 01:18:36;;;;;;;3.97;3.13;;;23.70;64.50;;;;;;5031283;28;20037;-69
2022/10/31 01:21:09;;;;;;;5.55;3.50;;;23.70;64.40;;;;;;5031889;28;20037;-68
2022/10/31 01:23:35;;;;;;;;;;;23.70;64.40;;;;;;5035706;28;20033;-69
2022/10/31 01:26:07;;;;;;;6.82;3.05;;;23.60;64.20;;;;;;5055482;28;19916;-69
2022/10/31 01:28:34;;;;;;;6.57;3.05;;;23.60;64.20;;;;;;5063338;28;20086;-69
2022/10/31 01:31:02;;;;;;;5.22;3.22;;;23.70;64.50;;;;;;5046107;28;20118;-69
2022/10/31 01:33:29;;;;;;;4.47;2.63;;;23.60;64.40;;;;;;5069331;28;20037;-69
2022/10/31 01:35:55;;;;;;;3.05;2.60;;;23.60;64.50;;;;;;5053409;28;20049;-70
2022/10/31 01:38:21;;;;;;;5.80;3.53;;;23.50;64.30;;;;;;5032871;28;20060;-69
2022/10/31 01:40:47;;;;;;;4.03;3.10;;;23.50;64.30;;;;;;5054097;28;20097;-69
2022/10/31 01:43:14;;;;;;;6.25;3.38;;;23.50;64.40;;;;;;5050012;28;20127;-69
2022/10/31 01:45:44;;;;;;;5.47;2.80;;;23.70;64.60;;;;;;5055757;28;20059;-69
2022/10/31 01:48:15;;;;;;;5.68;3.40;;;23.60;64.50;;;;;;5037950;28;20036;-69
2022/10/31 01:50:42;;;;;;;7.85;3.47;;;23.60;64.40;;;;;;5057508;28;20040;-69
2022/10/31 01:53:10;;;;;;;6.47;3.10;;;23.50;64.30;;;;;;5032329;28;20029;-69
2022/10/31 01:55:41;;;;;;;5.38;3.17;;;23.50;64.40;;;;;;5055290;28;20608;-69
2022/10/31 01:58:19;;;;;;;4.95;3.17;;;23.50;64.50;;;;;;5039996;28;20056;-69
2022/10/31 02:00:48;;;;;;;7.35;3.58;;;23.50;64.40;;;;;;5048599;28;20033;-69
2022/10/31 02:03:14;;;;;;;9.35;3.28;;;23.40;64.30;;;;;;5032872;28;20030;-69
2022/10/31 02:05:42;;;;;;;6.05;3.25;;;23.40;64.50;;;;;;5031262;28;20053;-69
2022/10/31 02:08:30;;;;;;;5.45;3.58;;;23.30;64.60;;;;;;5016518;28;20033;-68
2022/10/31 02:10:58;;;;;;;4.63;3.53;;;23.40;64.70;;;;;;5029991;28;20042;-69
2022/10/31 02:13:25;;;;;;;4.50;2.92;;;23.30;64.70;;;;;;5025881;28;20041;-68
2022/10/31 02:15:57;;;;;;;5.22;3.28;;;23.30;64.60;;;;;;5045706;28;20021;-69
2022/10/31 02:18:25;;;;;;;6.72;3.00;;;23.20;64.50;;;;;;5051970;28;20033;-69
2022/10/31 02:21:14;;;;;;;5.85;3.63;;;23.40;64.70;;;;;;5040867;28;20112;-69
2022/10/31 02:24:03;;;;;;;3.97;3.08;;;23.30;64.60;;;;;;4993406;28;20038;-69
2022/10/31 02:26:50;;;;;;;6.07;3.13;;;23.40;64.70;;;;;;5014035;28;20038;-69
2022/10/31 02:29:49;;;;;;;10.63;3.38;;;23.30;64.60;;;;;;5014549;28;20068;-69
2022/10/31 02:32:40;;;;;;;3.50;2.63;;;23.30;64.70;;;;;;5024163;28;20063;-69
2022/10/31 02:35:14;;;;;;;4.72;2.63;;;23.40;64.90;;;;;;5025861;28;20056;-68
2022/10/31 02:38:02;;;;;;;10.02;2.75;;;23.40;64.50;;;;;;4993414;28;20189;-69
2022/10/31 02:41:13;;;;;;;4.50;2.72;;;23.40;64.40;;;;;;5009337;28;20053;-69
2022/10/31 02:44:16;;;;;;;5.82;3.65;;;23.30;64.50;;;;;;5026244;28;20038;-69
2022/10/31 02:47:08;;;;;;;4.05;2.75;;;23.50;64.80;;;;;;5023497;28;20577;-68
2022/10/31 02:49:43;;;;;;;4.18;3.05;;;23.30;64.80;;;;;;5018234;28;20033;-69
2022/10/31 02:52:26;;;;;;;4.72;2.92;;;23.30;64.80;;;;;;5008836;28;20046;-69
2022/10/31 02:54:53;;;;;;;9.05;4.63;;;23.20;64.70;;;;;;5023237;28;20038;-69
2022/10/31 02:57:28;;;;;;;10.20;5.35;;;23.40;64.80;;;;;;5010944;28;20034;-69
2022/10/31 03:00:00;;;;;;;5.43;3.97;;;23.20;64.50;;;;;;4999348;28;20392;-69
2022/10/31 03:03:03;;;;;;;6.97;4.32;;;23.30;64.60;;;;;;5048129;28;20037;-69
2022/10/31 03:05:34;;;;;;;5.78;4.20;;;23.20;64.40;;;;;;5037956;28;20072;-69
2022/10/31 03:08:22;;;;;;;7.72;4.95;;;23.20;64.50;;;;;;5029916;28;20059;-69
2022/10/31 03:11:03;;;;;;;5.40;3.92;;;23.30;64.30;;;;;;5045378;28;20450;-69
2022/10/31 03:13:44;;;;;;;7.50;4.80;;;23.20;64.30;;;;;;5045646;28;20041;-70
2022/10/31 03:16:13;;;;;;;5.45;4.00;;;23.30;64.70;;;;;;5037887;28;20046;-68
2022/10/31 03:19:05;;;;;;;6.40;3.72;;;23.20;64.20;;;;;;5030938;28;20044;-69
2022/10/31 03:21:48;;;;;;;8.63;4.18;;;23.30;64.30;;;;;;5009080;28;20064;-69
2022/10/31 03:24:16;;;;;;;8.25;4.20;;;23.30;64.30;;;;;;5008059;28;20025;-69
2022/10/31 03:26:49;;;;;;;8.40;4.20;;;23.30;64.40;;;;;;5008625;28;20053;-69
2022/10/31 03:29:19;;;;;;;5.30;4.25;;;23.20;64.40;;;;;;5006847;28;20069;-68
2022/10/31 03:32:08;;;;;;;6.20;4.05;;;23.30;64.60;;;;;;5025394;28;20045;-69
2022/10/31 03:34:37;;;;;;;10.35;4.97;;;23.30;64.60;;;;;;5029067;28;20485;-69
2022/10/31 03:37:07;;;;;;;8.80;4.80;;;23.20;64.70;;;;;;5008680;28;20030;-68
2022/10/31 03:39:36;;;;;;;9.25;5.32;;;23.20;64.80;;;;;;4996003;28;20041;-69
2022/10/31 03:42:07;;;;;;;7.35;4.20;;;23.20;64.90;;;;;;4994165;28;20120;-69
2022/10/31 03:44:35;;;;;;;8.63;5.30;;;23.20;64.90;;;;;;5009979;28;20084;-69
2022/10/31 03:47:03;;;;;;;10.98;4.95;;;23.20;64.70;;;;;;4996534;28;20033;-69
2022/10/31 03:49:31;;;;;;;10.57;4.72;;;23.20;64.70;;;;;;5021797;28;20049;-69
2022/10/31 03:52:11;;;;;;;11.15;5.47;;;23.20;64.80;;;;;;5019474;28;20104;-68
2022/10/31 03:54:46;;;;;;;10.40;5.10;;;23.30;65.00;;;;;;5006904;28;20466;-68
2022/10/31 03:57:19;;;;;;;7.00;4.70;;;23.20;64.90;;;;;;5006995;28;20056;-69
2022/10/31 03:59:50;;;;;;;12.25;5.03;;;23.20;64.90;;;;;;5047579;28;20131;-69
2022/10/31 04:02:20;;;;;;;9.20;5.38;;;23.20;64.90;;;;;;5041683;28;20037;-69
2022/10/31 04:04:48;;;;;;;10.88;4.82;;;23.10;65.10;;;;;;5049284;28;20418;-68
2022/10/31 04:07:15;;;;;;;11.68;5.32;;;23.00;65.10;;;;;;5034821;28;20095;-69
2022/10/31 04:09:45;;;;;;;11.63;5.00;;;23.10;65.10;;;;;;5028233;28;20044;-69
2022/10/31 04:12:15;;;;;;;8.55;5.30;;;23.10;65.10;;;;;;5033256;28;20098;-69
2022/10/31 04:14:57;;;;;;;10.57;4.60;;;23.10;65.40;;;;;;5060990;28;20098;-69
2022/10/31 04:17:27;;;;;;;7.07;5.20;;;23.20;65.30;;;;;;5043526;28;20029;-69
2022/10/31 04:19:53;;;;;;;7.43;4.93;;;23.00;65.20;;;;;;5057993;28;20064;-69
2022/10/31 04:22:19;;;;;;;9.55;5.75;;;23.00;65.20;;;;;;5030667;28;20055;-69
2022/10/31 04:24:45;;;;;;;8.30;4.88;;;23.10;65.30;;;;;;5047134;28;20032;-69
2022/10/31 04:27:14;;;;;;;7.82;4.88;;;23.00;65.30;;;;;;5021268;28;20036;-68
2022/10/31 04:29:40;;;;;;;11.60;5.95;;;23.00;65.30;;;;;;5060732;28;20455;-68
2022/10/31 04:32:07;;;;;;;9.93;5.03;;;23.00;65.40;;;;;;5061686;28;20032;-69
2022/10/31 04:34:33;;;;;;;9.85;5.57;;;23.00;65.20;;;;;;5039641;28;20052;-69
2022/10/31 04:36:59;;;;;;;8.52;5.43;;;23.00;65.10;;;;;;5028831;28;20072;-69
2022/10/31 04:39:25;;;;;;;7.68;5.05;;;23.10;65.10;;;;;;5030537;28;20477;-68
2022/10/31 04:42:11;;;;;;;9.27;5.43;;;23.20;65.10;;;;;;5058759;28;20052;-69
2022/10/31 04:44:38;;;;;;;12.20;6.20;;;23.10;64.90;;;;;;5030041;28;20053;-69
2022/10/31 04:47:04;;;;;;;8.38;5.55;;;23.00;64.90;;;;;;5044250;28;20044;-69
2022/10/31 04:49:30;;;;;;;6.85;5.43;;;23.00;65.00;;;;;;5050913;28;20033;-69
2022/10/31 04:51:56;;;;;;;8.38;5.53;;;22.90;65.20;;;;;;5042857;28;20034;-69
2022/10/31 04:54:23;;;;;;;11.00;5.72;;;23.10;65.30;;;;;;5036275;28;20033;-69
2022/10/31 04:57:24;;;;;;;7.93;5.82;;;23.00;65.20;;;;;;5027783;28;20149;-69
2022/10/31 04:59:50;;;;;;;11.88;6.18;;;22.90;65.20;;;;;;4996505;28;20049;-69
2022/10/31 05:02:16;;;;;;;10.02;5.47;;;23.00;65.30;;;;;;5000198;28;20599;-68
2022/10/31 05:04:52;;;;;;;13.10;6.03;;;22.90;65.30;;;;;;5027789;28;20054;-68
2022/10/31 05:07:18;;;;;;;11.75;6.55;;;22.90;65.40;;;;;;5026402;28;20049;-69
2022/10/31 05:09:44;;;;;;;9.95;6.38;;;22.80;65.40;;;;;;5026642;28;20029;-69
2022/10/31 05:12:12;;;;;;;9.27;6.00;;;22.90;65.70;;;;;;5025583;28;20514;-69
2022/10/31 05:14:56;;;;;;;7.30;5.07;;;22.90;65.60;;;;;;5031450;28;20033;-70
2022/10/31 05:17:48;;;;;;;11.07;5.93;;;22.80;65.50;;;;;;4991030;28;20042;-69
2022/10/31 05:20:33;;;;;;;8.98;6.10;;;22.90;65.70;;;;;;4992148;28;20117;-69
2022/10/31 05:23:28;;;;;;;11.65;6.13;;;22.90;65.60;;;;;;4977332;28;20098;-69
2022/10/31 05:25:54;;;;;;;13.57;6.72;;;22.90;65.60;;;;;;4983476;28;20078;-69
2022/10/31 05:28:20;;;;;;;10.02;6.50;;;22.90;65.50;;;;;;4997950;28;20046;-69
2022/10/31 05:30:46;;;;;;;13.18;6.45;;;22.90;65.50;;;;;;4976144;28;20047;-68
2022/10/31 05:33:15;;;;;;;8.50;5.95;;;22.90;65.60;;;;;;4969915;28;20049;-69
2022/10/31 05:36:03;;;;;;;12.35;5.78;;;22.90;65.60;;;;;;4986471;28;20041;-69
2022/10/31 05:38:35;;;;;;;9.63;5.90;;;23.00;65.60;;;;;;4970432;28;20030;-69
2022/10/31 05:41:12;;;;;;;15.68;6.82;;;23.00;65.60;;;;;;4987791;28;20046;-69
2022/10/31 05:43:43;;;;;;;8.32;5.63;;;22.90;65.60;;;;;;4970695;28;20105;-68
2022/10/31 05:46:09;;;;;;;11.80;6.60;;;23.00;65.60;;;;;;4991885;28;20042;-69
2022/10/31 05:48:58;;;;;;;11.40;7.22;;;23.00;65.60;;;;;;4971593;28;20053;-69
2022/10/31 05:51:43;;;;;;;14.20;7.22;;;22.90;65.50;;;;;;4948026;28;20039;-69
2022/10/31 05:54:09;;;;;;;11.38;7.05;;;22.80;65.40;;;;;;4934970;29;20129;-69
2022/10/31 05:56:37;;;;;;;11.02;7.40;;;22.90;65.70;;;;;;4921123;29;20578;-69
2022/10/31 05:59:03;;;;;;;16.23;7.78;;;22.80;65.40;;;;;;4942788;28;20042;-69
2022/10/31 06:01:29;;;;;;;15.32;7.00;;;22.90;65.60;;;;;;4974298;28;20077;-69
2022/10/31 06:03:58;;;;;;;12.70;7.72;;;22.90;65.90;;;;;;4973849;28;20045;-73
2022/10/31 06:06:24;;;;;;;10.70;7.18;;;22.90;65.50;;;;;;4974161;28;20070;-71
2022/10/31 06:08:50;;;;;;;14.77;8.85;;;22.80;64.80;;;;;;4990824;28;20034;-72
2022/10/31 06:11:19;;;;;;;14.80;8.68;;;22.70;65.20;;;;;;4974445;28;20050;-69
2022/10/31 06:14:04;;;;;;;12.55;8.80;;;22.80;65.20;;;;;;4985861;28;20038;-67
2022/10/31 06:16:48;;;;;;;10.85;7.70;;;22.90;65.60;;;;;;4970204;28;20065;-67
2022/10/31 06:19:33;;;;;;;13.43;6.45;;;22.90;65.40;;;;;;4985392;28;20811;-70
2022/10/31 06:21:59;;;;;;;8.20;5.75;;;22.80;58.80;;;;;;4978053;28;21131;-68
2022/10/31 06:24:25;;;;;;;7.57;4.43;;;22.90;58.30;;;;;;4979483;28;20088;-67
2022/10/31 06:26:53;;;;;;;7.22;5.28;;;23.10;58.90;;;;;;5024565;28;20082;-68
2022/10/31 06:29:20;;;;;;;8.05;4.75;;;23.20;56.90;;;;;;5014289;28;20080;-68
2022/10/31 06:31:58;;;;;;;9.55;6.10;;;23.20;57.20;;;;;;5029203;28;20037;-69
2022/10/31 06:34:24;;;;;;;31.35;8.60;;;23.30;57.90;;;;;;5047095;28;21138;-67
2022/10/31 06:36:50;;;;;;;11.63;6.88;;;23.60;58.70;;;;;;5035213;28;20037;-73
2022/10/31 06:39:20;;;;;;;8.65;5.75;;;23.70;62.30;;;;;;5030344;28;20108;-67
2022/10/31 06:41:48;;;;;;;7.20;4.65;;;23.70;55.40;;;;;;5030480;28;20029;-69
2022/10/31 06:44:15;;;;;;;8.57;4.85;;;23.70;53.90;;;;;;5030307;28;20084;-69
2022/10/31 06:46:54;;;;;;;9.07;5.15;;;23.70;53.50;;;;;;5030092;28;20031;-69
2022/10/31 06:49:45;;;;;;;9.30;6.07;;;23.70;53.40;;;;;;5030919;28;20084;-70
2022/10/31 06:52:14;;;;;;;12.60;7.68;;;23.80;54.90;;;;;;5030723;28;20447;-69
2022/10/31 06:54:41;;;;;;;11.70;8.30;;;23.80;60.60;;;;;;5030105;28;20033;-67
2022/10/31 06:57:07;;;;;;;18.20;8.77;;;23.90;64.90;;;;;;5029179;28;20037;-67
2022/10/31 06:59:33;;;;;;;13.27;7.50;;;24.00;66.20;;;;;;5031030;28;20037;-68
2022/10/31 07:02:12;;;;;;;18.35;7.55;;;23.90;70.30;;;;;;5030506;28;20049;-69
2022/10/31 07:04:39;;;;;;;15.13;8.80;;;24.00;69.80;;;;;;5030134;28;20447;-68
2022/10/31 07:07:05;;;;;;;17.33;9.52;;;23.90;68.50;;;;;;5026107;28;20044;-67
2022/10/31 07:09:32;;;;;;;16.08;9.38;;;23.90;67.30;;;;;;5027544;28;20375;-68
2022/10/31 07:12:02;;;;;;;17.38;8.88;;;23.70;66.80;;;;;;5025782;28;20243;-67
2022/10/31 07:14:31;;;;;;;13.57;8.68;;;23.60;67.10;;;;;;5029185;28;20051;-67
2022/10/31 07:16:56;;;;;;;16.67;8.60;;;23.70;67.20;;;;;;4990319;28;20061;-67
2022/10/31 07:19:30;;;;;;;17.00;8.25;;;23.70;67.50;;;;;;5030382;28;20378;-68
2022/10/31 07:21:57;;;;;;;19.35;8.85;;;23.60;67.40;;;;;;5043859;28;20076;-68
2022/10/31 07:24:26;;;;;;;17.02;8.65;;;23.60;66.80;;;;;;5054009;28;20087;-68
2022/10/31 07:27:12;;;;;;;22.35;10.48;;;23.50;66.70;;;;;;5033886;28;20091;-67
2022/10/31 07:29:38;;;;;;;18.58;9.93;;;23.50;55.60;;;;;;5034224;28;20052;-67
2022/10/31 07:32:04;;;;;;;20.25;8.40;;;23.20;66.70;;;;;;5031792;28;20060;-68
2022/10/31 07:34:32;;;;;;;18.95;8.65;;;23.20;68.80;;;;;;5030117;28;20033;-68
2022/10/31 07:37:27;;;;;;;19.08;7.47;;;23.40;69.30;;;;;;5027463;28;20124;-68
2022/10/31 07:39:55;;;;;;;16.77;8.32;;;23.40;70.90;;;;;;5041076;28;20421;-67
2022/10/31 07:42:21;;;;;;;14.90;8.70;;;23.60;70.00;;;;;;5027927;28;20068;-68
2022/10/31 07:44:47;;;;;;;17.73;8.77;;;23.50;69.80;;;;;;5027004;28;20434;-67
2022/10/31 07:47:46;;;;;;;18.33;9.05;;;23.60;69.60;;;;;;5027702;28;20087;-67
2022/10/31 07:50:17;;;;;;;21.10;14.13;;;23.60;71.00;;;;;;5011868;28;20071;-66
2022/10/31 07:53:13;;;;;;;23.98;13.70;;;23.60;76.10;;;;;;4988767;28;20057;-66
2022/10/31 07:55:54;;;;;;;26.10;16.10;;;23.70;79.80;;;;;;4977418;28;20071;-67
2022/10/31 07:58:25;;;;;;;23.25;15.93;;;23.80;80.60;;;;;;4990210;28;20046;-67
2022/10/31 08:00:51;;;;;;;40.50;20.15;;;23.90;81.00;;;;;;4999252;28;20046;-66
2022/10/31 08:03:28;;;;;;;29.52;17.23;;;23.90;82.60;;;;;;5008003;28;20507;-67
2022/10/31 08:06:09;;;;;;;16.83;11.15;;;24.00;80.50;;;;;;5006307;28;20054;-67
2022/10/31 08:09:01;;;;;;;15.93;9.15;;;24.00;68.30;;;;;;5008509;28;20056;-68
2022/10/31 08:11:27;;;;;;;20.25;9.23;;;24.10;76.80;;;;;;4987889;28;20087;-67
2022/10/31 08:13:53;;;;;;;13.93;8.15;;;24.10;76.90;;;;;;4966971;28;20042;-68
2022/10/31 08:16:19;;;;;;;10.38;6.50;;;24.20;73.30;;;;;;4987014;28;20033;-70
2022/10/31 08:18:58;;;;;;;13.82;7.75;;;24.20;73.00;;;;;;5008717;28;20034;-68
2022/10/31 08:21:24;;;;;;;15.60;8.85;;;24.30;68.80;;;;;;5001382;28;20486;-67
2022/10/31 08:23:50;;;;;;;10.05;7.25;;;24.30;71.20;;;;;;4983602;28;20162;-67
2022/10/31 08:26:19;;;;;;;11.55;7.85;;;24.30;77.90;;;;;;5000720;28;20618;-66
2022/10/31 08:28:46;;;;;;;12.43;7.47;;;24.40;72.00;;;;;;5008632;28;20041;-66
2022/10/31 08:31:13;;;;;;;13.25;8.23;;;24.50;67.60;;;;;;4992878;28;20046;-66
2022/10/31 08:33:39;;;;;;;12.70;7.82;;;24.50;66.00;;;;;;5036090;28;20025;-66
2022/10/31 08:36:23;;;;;;;10.63;6.22;;;24.50;68.10;;;;;;5033354;28;20042;-66
2022/10/31 08:38:58;;;;;;;12.73;7.05;;;24.50;72.80;;;;;;5016463;28;20038;-66
2022/10/31 08:41:26;;;;;;;9.13;6.68;;;24.50;70.20;;;;;;5033821;28;20459;-67
2022/10/31 08:43:52;;;;;;;13.45;6.93;;;24.50;64.00;;;;;;5027886;28;20033;-69
2022/10/31 08:46:19;;;;;;;10.75;6.13;;;24.50;67.40;;;;;;5036467;28;20364;-68
2022/10/31 08:48:47;;;;;;;10.30;6.53;;;24.50;69.00;;;;;;5049973;28;20056;-67
2022/10/31 08:51:13;;;;;;;11.38;7.45;;;24.50;69.30;;;;;;5030193;28;20056;-67
2022/10/31 08:53:40;;;;;;;14.63;7.60;;;24.50;66.80;;;;;;5039415;28;20033;-70
2022/10/31 08:56:35;;;;;;;6.88;3.85;;;24.50;61.90;;;;;;5014572;28;20545;-69
2022/10/31 08:59:04;;;;;;;13.20;6.93;;;24.50;67.60;;;;;;5028305;28;20038;-68
2022/10/31 09:01:45;;;;;;;8.73;6.53;;;24.50;64.20;;;;;;5041145;28;20061;-68
2022/10/31 09:04:11;;;;;;;10.77;6.78;;;24.50;67.90;;;;;;5048270;28;20041;-67
2022/10/31 09:06:37;;;;;;;11.65;6.93;;;24.40;61.00;;;;;;4998913;28;20064;-64
2022/10/31 09:09:04;;;;;;;10.98;7.25;;;24.40;64.40;;;;;;5005115;28;20044;-66
2022/10/31 09:11:31;;;;;;;12.10;7.63;;;24.40;60.70;;;;;;5028309;28;20598;-67
2022/10/31 09:14:15;;;;;;;12.48;7.40;;;24.50;65.20;;;;;;5013760;28;20049;-66
2022/10/31 09:17:00;;;;;;;15.70;7.95;;;24.40;62.40;;;;;;5011729;28;20034;-66
2022/10/31 09:19:41;;;;;;;9.95;4.55;;;24.40;58.90;;;;;;5023823;28;20066;-66
2022/10/31 09:22:07;;;;;;;11.70;6.75;;;24.30;65.80;;;;;;5000954;28;20473;-67
2022/10/31 09:24:33;;;;;;;10.90;5.20;;;24.40;61.00;;;;;;5019676;28;20057;-66
2022/10/31 09:26:59;;;;;;;8.43;4.40;;;24.40;64.00;;;;;;5042272;28;20458;-68
2022/10/31 09:29:28;;;;;;;10.07;5.70;;;24.40;65.90;;;;;;5036754;28;20099;-66
2022/10/31 09:31:59;;;;;;;9.68;5.80;;;24.40;64.70;;;;;;4996422;28;20048;-67
2022/10/31 09:34:27;;;;;;;5.57;3.55;;;24.40;63.00;;;;;;5041506;28;20375;-67
2022/10/31 09:37:05;;;;;;;7.88;4.57;;;24.30;66.10;;;;;;5036767;28;20040;-68
2022/10/31 09:39:33;;;;;;;8.18;5.20;;;24.40;67.40;;;;;;5031560;28;20041;-68
2022/10/31 09:42:43;;;;;;;12.32;6.97;;;24.40;65.40;;;;;;5031436;28;20033;-69
2022/10/31 09:45:37;;;;;;;14.10;7.15;;;24.50;65.00;;;;;;5053735;28;20110;-66
2022/10/31 09:48:28;;;;;;;9.98;5.80;;;24.50;65.80;;;;;;5047323;28;20532;-69
2022/10/31 09:51:34;;;;;;;11.70;6.70;;;24.40;59.00;;;;;;5061895;28;20129;-70
2022/10/31 09:54:34;;;;;;;7.80;4.22;;;24.40;58.90;;;;;;5052182;28;20044;-71
2022/10/31 09:57:01;;;;;;;11.32;7.00;;;24.50;61.00;;;;;;5038239;28;20067;-70
2022/10/31 09:59:39;;;;;;;8.57;5.10;;;24.60;57.80;;;;;;5041491;28;20032;-69
2022/10/31 10:02:25;;;;;;;10.65;6.05;;;24.50;62.30;;;;;;5050354;28;20481;-70
2022/10/31 10:04:54;;;;;;;12.50;6.88;;;24.50;61.80;;;;;;5042298;28;20045;-70
2022/10/31 10:07:51;;;;;;;9.70;5.60;;;24.40;59.60;;;;;;5042530;28;20626;-70
2022/10/31 10:10:52;;;;;;;9.40;6.13;;;24.60;62.90;;;;;;5057521;28;20547;-70
2022/10/31 10:13:35;;;;;;;8.63;5.65;;;24.60;57.10;;;;;;5052238;28;20512;-71
2022/10/31 10:16:23;;;;;;;9.52;6.63;;;24.50;59.70;;;;;;5059784;28;20045;-71
2022/10/31 10:19:18;;;;;;;9.07;6.35;;;24.50;57.50;;;;;;5069787;28;20068;-70
2022/10/31 10:21:59;;;;;;;12.10;5.93;;;24.50;52.90;;;;;;5052436;28;20040;-70
2022/10/31 10:24:43;;;;;;;10.20;5.47;;;24.50;62.10;;;;;;5032295;28;20029;-70
2022/10/31 10:27:32;;;;;;;8.32;5.60;;;24.50;59.70;;;;;;5032134;28;20068;-71
2022/10/31 10:30:07;;;;;;;9.75;5.15;;;24.40;59.60;;;;;;5044996;28;20080;-67
2022/10/31 10:33:08;;;;;;;8.75;6.38;;;24.50;62.00;;;;;;5013235;28;20052;-67
2022/10/31 10:35:39;;;;;;;8.70;5.78;;;24.50;56.00;;;;;;5012886;28;20040;-68
2022/10/31 10:38:08;;;;;;;7.97;5.90;;;24.50;62.30;;;;;;5010588;28;20042;-68
2022/10/31 10:40:34;;;;;;;7.45;5.60;;;24.40;62.50;;;;;;5011978;28;20120;-68
2022/10/31 10:43:23;;;;;;;8.68;5.25;;;24.50;63.00;;;;;;5012688;28;20064;-68
2022/10/31 10:49:01;;;;;;;8.95;2.92;;;24.50;64.90;;;;;;5012891;28;20034;-67
2022/10/31 10:51:46;;;;;;;9.77;6.00;;;24.60;64.40;;;;;;5012641;28;20034;-67
2022/10/31 10:54:36;;;;;;;11.02;5.95;;;24.60;57.40;;;;;;5011451;28;20057;-67
2022/10/31 10:57:11;;;;;;;12.82;5.55;;;24.70;53.70;;;;;;5025049;28;20061;-68
2022/10/31 10:59:37;;;;;;;9.95;4.53;;;24.70;52.60;;;;;;5032636;28;20063;-67
2022/10/31 11:02:15;;;;;;;12.57;5.82;;;24.80;53.60;;;;;;5030383;28;20037;-67
2022/10/31 11:04:42;;;;;;;28.63;7.30;;;24.90;59.70;;;;;;5031172;28;20049;-69
2022/10/31 11:07:12;;;;;;;10.98;4.40;;;25.30;61.50;;;;;;5029171;28;20406;-68
2022/10/31 11:09:38;;;;;;;10.98;5.88;;;25.60;54.70;;;;;;5029603;28;20422;-68
2022/10/31 11:12:28;;;;;;;10.02;6.25;;;25.60;53.00;;;;;;5031307;28;20038;-68
2022/10/31 11:15:00;;;;;;;8.50;4.72;;;25.50;52.10;;;;;;5030698;28;20048;-68
2022/10/31 11:17:36;;;;;;;9.18;4.70;;;25.50;51.80;;;;;;5030079;28;20029;-66
2022/10/31 11:20:14;;;;;;;7.57;4.97;;;25.30;52.80;;;;;;5030734;28;20149;-69
2022/10/31 11:22:46;;;;;;;8.35;4.50;;;25.50;48.50;;;;;;5032058;28;20080;-70
2022/10/31 11:25:23;;;;;;;4.00;2.42;;;25.30;48.40;;;;;;5031811;28;20075;-70
2022/10/31 11:28:05;;;;;;;8.98;4.70;;;25.30;50.40;;;;;;5036685;28;20071;-69
2022/10/31 11:30:42;;;;;;;5.70;4.10;;;25.40;58.30;;;;;;5043845;28;20044;-69
2022/10/31 11:33:22;;;;;;;6.80;4.07;;;25.50;62.40;;;;;;5030373;28;20124;-68
2022/10/31 11:35:49;;;;;;;5.90;3.95;;;25.50;60.20;;;;;;5031803;28;20467;-70
2022/10/31 11:38:21;;;;;;;6.95;4.65;;;25.50;61.50;;;;;;5051551;28;20036;-68
2022/10/31 11:40:59;;;;;;;13.98;4.00;;;25.50;62.00;;;;;;5051862;28;20033;-68
2022/10/31 11:43:26;;;;;;;6.55;3.85;;;25.50;58.90;;;;;;5051387;28;20029;-68
2022/10/31 11:45:52;;;;;;;7.25;4.88;;;25.40;61.00;;;;;;5051465;28;20117;-69
2022/10/31 11:48:22;;;;;;;6.25;4.28;;;25.40;60.40;;;;;;5051404;28;20033;-68
2022/10/31 11:50:57;;;;;;;6.93;4.30;;;25.40;60.00;;;;;;5051002;28;20044;-68
2022/10/31 11:53:33;;;;;;;6.38;3.83;;;25.40;61.50;;;;;;5051475;28;20040;-69
2022/10/31 11:56:19;;;;;;;7.03;4.70;;;25.30;62.10;;;;;;5040036;28;20048;-69
2022/10/31 11:59:05;;;;;;;8.80;3.92;;;25.30;59.80;;;;;;4995937;28;20052;-67
2022/10/31 12:01:32;;;;;;;9.02;4.28;;;25.30;60.50;;;;;;5031553;28;20072;-67
2022/10/31 12:04:11;;;;;;;5.30;3.50;;;25.30;61.30;;;;;;5030576;28;20052;-69
2022/10/31 12:06:40;;;;;;;7.45;4.68;;;25.40;60.90;;;;;;5045161;28;20183;-68
2022/10/31 12:09:32;;;;;;;7.38;4.28;;;25.30;59.10;;;;;;5030069;28;20026;-68
2022/10/31 12:12:01;;;;;;;7.53;4.50;;;25.30;62.50;;;;;;5008623;28;20367;-69
2022/10/31 12:15:15;;;;;;;6.00;3.65;;;25.30;60.60;;;;;;5008229;28;20410;-69
2022/10/31 12:18:02;;;;;;;7.68;4.30;;;25.30;59.50;;;;;;4949902;28;20042;-70
2022/10/31 12:20:40;;;;;;;9.00;4.15;;;25.40;61.40;;;;;;4950225;29;20425;-70
2022/10/31 12:23:36;;;;;;;7.20;4.55;;;25.30;62.70;;;;;;4950280;28;20047;-70
2022/10/31 12:26:20;;;;;;;7.60;5.28;;;25.30;62.90;;;;;;4966260;28;20074;-69
2022/10/31 12:29:15;;;;;;;9.13;3.83;;;25.30;62.20;;;;;;4949969;29;20047;-69
2022/10/31 12:32:41;;;;;;;5.70;4.35;;;25.30;62.70;;;;;;4950260;29;20043;-69
2022/10/31 12:35:21;;;;;;;7.50;4.72;;;25.30;62.80;;;;;;4930491;29;20066;-70
2022/10/31 12:38:03;;;;;;;9.75;6.13;;;25.30;62.10;;;;;;4930330;29;20172;-69
2022/10/31 12:40:40;;;;;;;9.25;5.28;;;25.30;62.50;;;;;;4931028;29;20067;-67
2022/10/31 12:43:24;;;;;;;7.57;4.75;;;25.30;62.90;;;;;;4930915;29;20563;-70
2022/10/31 12:46:01;;;;;;;7.10;4.88;;;25.30;62.40;;;;;;4930300;29;20051;-68
2022/10/31 12:49:04;;;;;;;10.95;6.47;;;25.50;62.50;;;;;;4930352;29;20105;-69
2022/10/31 12:51:49;;;;;;;11.48;6.43;;;25.30;62.70;;;;;;4930863;29;20069;-69
2022/10/31 12:54:38;;;;;;;9.43;5.68;;;25.20;62.80;;;;;;4944186;29;20043;-69
2022/10/31 12:57:18;;;;;;;10.98;4.85;;;25.30;63.10;;;;;;4949724;29;20050;-69
2022/10/31 12:59:59;;;;;;;8.23;5.22;;;25.20;62.60;;;;;;4950317;29;20043;-70
2022/10/31 13:02:50;;;;;;;11.98;6.80;;;25.20;62.40;;;;;;4950480;29;20056;-68
2022/10/31 13:05:28;;;;;;;7.47;4.55;;;25.20;62.40;;;;;;4950159;29;20094;-70
2022/10/31 13:08:00;;;;;;;14.10;6.32;;;25.20;61.30;;;;;;4950205;28;20047;-71
2022/10/31 13:10:46;;;;;;;11.43;6.40;;;25.20;62.40;;;;;;4972783;28;20077;-70
2022/10/31 13:13:23;;;;;;;7.75;5.47;;;24.90;60.00;;;;;;5020181;28;20037;-69
2022/10/31 13:15:59;;;;;;;19.05;8.35;;;25.00;61.70;;;;;;5032387;28;20033;-69
2022/10/31 13:18:43;;;;;;;10.23;5.82;;;25.00;62.10;;;;;;5034240;28;20509;-69
2022/10/31 13:21:16;;;;;;;11.93;6.05;;;25.00;61.90;;;;;;5011942;28;20037;-68
2022/10/31 13:23:45;;;;;;;8.23;4.70;;;25.00;65.80;;;;;;5011707;28;20129;-68